createdAt,value
2019-03-30T00:02:11.060Z,23.33
2019-03-30T00:04:42.478Z,24.07
2019-03-30T00:07:12.691Z,23.87
2019-03-30T00:09:42.991Z,22.20
2019-03-30T00:12:13.273Z,22.85
2019-03-30T00:14:43.618Z,22.70
2019-03-30T00:17:13.870Z,22.47
2019-03-30T00:19:44.370Z,21.90
2019-03-30T00:22:14.714Z,22.87
2019-03-30T00:24:45.045Z,22.83
2019-03-30T00:27:15.302Z,22.50
2019-03-30T00:29:45.632Z,25.77
2019-03-30T00:32:15.921Z,23.20
2019-03-30T00:34:46.150Z,23.47
2019-03-30T00:37:16.387Z,26.67
2019-03-30T00:39:46.657Z,26.57
2019-03-30T00:42:16.928Z,22.07
2019-03-30T00:44:47.196Z,23.87
2019-03-30T00:47:17.467Z,21.97
2019-03-30T00:49:49.254Z,19.87
2019-03-30T00:52:19.648Z,25.33
2019-03-30T00:54:49.883Z,25.23
2019-03-30T00:57:20.164Z,24.07
2019-03-30T00:59:50.455Z,23.90
2019-03-30T01:02:20.730Z,24.83
2019-03-30T01:04:52.188Z,25.63
2019-03-30T01:07:22.538Z,23.43
2019-03-30T01:09:52.792Z,25.33
2019-03-30T01:12:23.122Z,26.60
2019-03-30T01:14:53.428Z,24.70
2019-03-30T01:17:23.773Z,22.77
2019-03-30T01:20:02.666Z,23.77
2019-03-30T01:22:25.998Z,23.33
2019-03-30T01:24:56.227Z,21.50
2019-03-30T01:27:26.495Z,22.23
2019-03-30T01:29:56.851Z,23.20
2019-03-30T01:32:27.092Z,20.83
2019-03-30T01:34:57.430Z,23.07
2019-03-30T01:37:27.675Z,21.10
2019-03-30T01:39:57.917Z,21.20
2019-03-30T01:42:28.346Z,21.53
2019-03-30T01:44:58.607Z,22.00
2019-03-30T01:47:28.882Z,21.17
2019-03-30T01:49:59.159Z,22.57
2019-03-30T01:52:29.409Z,22.33
2019-03-30T01:54:59.694Z,22.43
2019-03-30T01:57:29.955Z,22.57
2019-03-30T02:00:00.304Z,21.63
2019-03-30T02:02:30.648Z,21.40
2019-03-30T02:05:00.911Z,24.03
2019-03-30T02:07:31.308Z,22.10
2019-03-30T02:10:01.643Z,21.27
2019-03-30T02:12:31.872Z,20.50
2019-03-30T02:15:02.207Z,19.37
2019-03-30T02:17:32.533Z,20.40
2019-03-30T02:20:02.865Z,20.90
2019-03-30T02:22:33.145Z,20.10
2019-03-30T02:25:04.972Z,22.33
2019-03-30T02:27:35.270Z,22.90
2019-03-30T02:30:05.920Z,19.10
2019-03-30T02:32:36.362Z,21.37
2019-03-30T02:35:06.738Z,19.20
2019-03-30T02:37:36.941Z,18.87
2019-03-30T02:40:07.344Z,19.70
2019-03-30T02:42:37.608Z,20.17
2019-03-30T02:45:07.917Z,19.80
2019-03-30T02:47:38.278Z,20.30
2019-03-30T02:50:08.609Z,21.63
2019-03-30T02:52:38.862Z,19.20
2019-03-30T02:55:12.573Z,18.77
2019-03-30T02:57:42.254Z,21.07
2019-03-30T03:00:14.103Z,18.67
2019-03-30T03:02:44.533Z,18.50
2019-03-30T03:05:15.839Z,18.90
2019-03-30T03:07:46.149Z,21.53
2019-03-30T03:10:16.488Z,18.13
2019-03-30T03:12:46.798Z,18.37
2019-03-30T03:15:17.172Z,18.93
2019-03-30T03:17:47.518Z,18.20
2019-03-30T03:20:17.871Z,18.70
2019-03-30T03:22:48.273Z,19.63
2019-03-30T03:25:18.492Z,17.77
2019-03-30T03:27:48.811Z,19.17
2019-03-30T03:30:19.287Z,17.90
2019-03-30T03:32:49.594Z,18.40
2019-03-30T03:35:19.941Z,19.70
2019-03-30T03:37:50.287Z,18.03
2019-03-30T03:40:20.627Z,17.97
2019-03-30T03:42:50.890Z,20.10
2019-03-30T03:45:21.151Z,17.47
2019-03-30T03:47:51.463Z,17.43
2019-03-30T03:50:40.699Z,21.27
2019-03-30T03:53:11.905Z,19.07
2019-03-30T03:55:42.261Z,19.50
2019-03-30T03:58:12.574Z,19.33
2019-03-30T04:00:42.923Z,16.67
2019-03-30T04:03:14.874Z,19.60
2019-03-30T04:05:46.552Z,16.40
2019-03-30T04:08:17.869Z,16.40
2019-03-30T04:10:48.536Z,21.37
2019-03-30T04:13:19.421Z,15.83
2019-03-30T04:15:49.811Z,17.60
2019-03-30T04:18:20.213Z,16.93
2019-03-30T04:20:50.470Z,17.73
2019-03-30T04:23:20.775Z,19.70
2019-03-30T04:25:51.059Z,15.90
2019-03-30T04:28:21.370Z,17.20
2019-03-30T04:30:51.645Z,18.80
2019-03-30T04:33:21.887Z,15.87
2019-03-30T04:35:52.161Z,14.50
2019-03-30T04:38:22.457Z,16.07
2019-03-30T04:40:53.837Z,16.10
2019-03-30T04:43:24.194Z,16.77
2019-03-30T04:45:54.425Z,15.80
2019-03-30T04:48:24.693Z,18.77
2019-03-30T04:50:55.039Z,15.90
2019-03-30T04:53:25.299Z,18.70
2019-03-30T04:55:55.635Z,15.03
2019-03-30T04:58:25.955Z,14.77
2019-03-30T05:00:56.262Z,15.77
2019-03-30T05:03:26.538Z,14.80
2019-03-30T05:05:56.807Z,15.70
2019-03-30T05:08:27.106Z,15.27
2019-03-30T05:10:57.354Z,16.67
2019-03-30T05:13:27.620Z,14.67
2019-03-30T05:15:57.868Z,14.93
2019-03-30T05:18:28.197Z,16.10
2019-03-30T05:20:58.459Z,15.87
2019-03-30T05:23:28.739Z,14.20
2019-03-30T05:25:59.022Z,14.60
2019-03-30T05:28:29.286Z,14.20
2019-03-30T05:30:59.573Z,13.87
2019-03-30T05:33:29.788Z,14.90
2019-03-30T05:36:00.073Z,14.57
2019-03-30T05:38:30.488Z,13.27
2019-03-30T05:41:00.756Z,14.83
2019-03-30T05:43:31.062Z,16.43
2019-03-30T05:46:01.330Z,14.47
2019-03-30T05:48:31.608Z,15.17
2019-03-30T05:51:01.899Z,17.07
2019-03-30T05:53:32.113Z,17.50
2019-03-30T05:56:03.166Z,18.27
2019-03-30T05:58:33.450Z,15.40
2019-03-30T06:01:04.546Z,16.23
2019-03-30T06:03:34.943Z,20.50
2019-03-30T06:06:05.261Z,17.70
2019-03-30T06:08:35.504Z,18.63
2019-03-30T06:11:05.786Z,19.90
2019-03-30T06:13:36.148Z,18.70
2019-03-30T06:16:06.399Z,20.60
2019-03-30T06:18:36.653Z,19.83
2019-03-30T06:21:06.888Z,16.50
2019-03-30T06:23:37.122Z,21.33
2019-03-30T06:26:07.408Z,21.77
2019-03-30T06:28:37.661Z,17.63
2019-03-30T06:31:07.971Z,21.37
2019-03-30T06:33:38.241Z,23.20
2019-03-30T06:36:08.604Z,19.37
2019-03-30T06:38:38.874Z,21.83
2019-03-30T06:41:09.220Z,22.83
2019-03-30T06:43:39.537Z,22.77
2019-03-30T06:46:09.871Z,21.63
2019-03-30T06:48:40.127Z,20.67
2019-03-30T06:51:10.473Z,22.60
2019-03-30T06:53:40.758Z,21.27
2019-03-30T06:56:12.049Z,21.17
2019-03-30T06:58:42.284Z,22.67
2019-03-30T07:01:12.625Z,17.97
2019-03-30T07:03:43.425Z,16.40
2019-03-30T07:06:14.356Z,17.03
2019-03-30T07:08:45.885Z,17.73
2019-03-30T07:11:21.360Z,19.73
2019-03-30T07:13:50.290Z,19.17
2019-03-30T07:16:20.738Z,19.97
2019-03-30T07:18:51.700Z,20.97
2019-03-30T07:21:21.974Z,21.63
2019-03-30T07:23:52.279Z,18.73
2019-03-30T07:26:22.609Z,19.10
2019-03-30T07:28:52.996Z,18.80
2019-03-30T07:31:23.371Z,24.00
2019-03-30T07:33:53.712Z,23.20
2019-03-30T07:36:24.921Z,20.00
2019-03-30T07:38:55.184Z,18.97
2019-03-30T07:41:25.721Z,19.13
2019-03-30T07:43:55.994Z,19.47
2019-03-30T07:46:26.367Z,19.30
2019-03-30T07:48:56.615Z,20.37
2019-03-30T07:51:26.961Z,20.50
2019-03-30T07:53:57.280Z,20.27
2019-03-30T07:56:27.591Z,21.00
2019-03-30T07:58:59.122Z,16.47
2019-03-30T08:01:29.537Z,17.40
2019-03-30T08:03:59.893Z,18.23
2019-03-30T08:06:30.157Z,18.10
2019-03-30T08:09:00.404Z,17.83
2019-03-30T08:11:30.663Z,18.30
2019-03-30T08:14:01.112Z,18.17
2019-03-30T08:16:31.469Z,16.93
2019-03-30T08:19:01.759Z,17.20
2019-03-30T08:21:32.057Z,16.03
2019-03-30T08:24:04.518Z,17.10
2019-03-30T08:26:35.763Z,17.10
2019-03-30T08:29:06.317Z,16.87
2019-03-30T08:31:36.831Z,16.87
2019-03-30T08:34:08.554Z,16.50
2019-03-30T08:36:38.934Z,17.03
2019-03-30T08:39:12.350Z,17.00
2019-03-30T08:41:43.112Z,16.27
2019-03-30T08:44:13.508Z,24.27
2019-03-30T08:46:43.769Z,16.90
2019-03-30T08:49:14.094Z,15.27
2019-03-30T08:51:44.585Z,14.97
2019-03-30T08:54:14.884Z,15.47
2019-03-30T08:56:45.250Z,13.63
2019-03-30T08:59:15.551Z,14.00
2019-03-30T09:01:45.884Z,13.20
2019-03-30T09:04:18.394Z,13.27
2019-03-30T09:06:48.710Z,11.17
2019-03-30T09:09:21.223Z,10.30
2019-03-30T09:11:54.657Z,11.63
2019-03-30T09:14:25.316Z,11.07
2019-03-30T09:16:55.656Z,11.50
2019-03-30T09:19:25.977Z,10.60
2019-03-30T09:21:56.341Z,10.23
2019-03-30T09:24:26.608Z,9.23
2019-03-30T09:26:56.858Z,10.67
2019-03-30T09:29:27.203Z,11.17
2019-03-30T09:31:57.487Z,10.70
2019-03-30T09:34:27.714Z,9.67
2019-03-30T09:36:57.993Z,10.13
2019-03-30T09:39:28.254Z,9.87
2019-03-30T09:41:58.516Z,9.97
2019-03-30T09:44:28.771Z,10.47
2019-03-30T09:46:59.024Z,9.17
2019-03-30T09:49:29.244Z,9.30
2019-03-30T09:51:59.496Z,9.00
2019-03-30T09:54:29.854Z,9.10
2019-03-30T09:57:00.108Z,10.20
2019-03-30T09:59:30.367Z,9.73
2019-03-30T10:02:00.801Z,9.90
2019-03-30T10:04:31.192Z,9.80
2019-03-30T10:07:01.416Z,8.30
2019-03-30T10:09:31.701Z,9.53
2019-03-30T10:12:01.938Z,9.80
2019-03-30T10:14:32.219Z,8.90
2019-03-30T10:17:02.539Z,10.40
2019-03-30T10:19:32.875Z,8.83
2019-03-30T10:22:03.140Z,9.10
2019-03-30T10:24:38.350Z,9.77
2019-03-30T10:27:05.548Z,8.87
2019-03-30T10:29:35.830Z,8.30
2019-03-30T10:32:06.075Z,8.50
2019-03-30T10:34:39.464Z,8.50
2019-03-30T10:37:08.279Z,9.17
2019-03-30T10:39:38.494Z,9.73
2019-03-30T10:42:08.746Z,8.17
2019-03-30T10:44:39.016Z,8.10
2019-03-30T10:47:09.228Z,8.13
2019-03-30T10:49:39.539Z,7.90
2019-03-30T10:52:09.774Z,8.97
2019-03-30T10:54:51.965Z,8.00
2019-03-30T10:57:11.933Z,7.20
2019-03-30T10:59:42.264Z,7.40
2019-03-30T11:02:12.522Z,7.93
2019-03-30T11:04:42.771Z,9.07
2019-03-30T11:07:13.040Z,7.80
2019-03-30T11:09:43.300Z,8.10
2019-03-30T11:12:13.574Z,8.53
2019-03-30T11:14:43.811Z,9.03
2019-03-30T11:17:14.041Z,7.60
2019-03-30T11:19:44.319Z,7.33
2019-03-30T11:22:14.566Z,6.57
2019-03-30T11:24:44.841Z,6.20
2019-03-30T11:27:18.459Z,9.20
2019-03-30T11:29:48.758Z,7.80
2019-03-30T11:32:19.126Z,6.67
2019-03-30T11:34:49.398Z,6.50
2019-03-30T11:37:19.691Z,7.50
2019-03-30T11:39:51.028Z,6.63
2019-03-30T11:42:21.245Z,7.13
2019-03-30T11:44:51.603Z,9.07
2019-03-30T11:47:21.832Z,7.50
2019-03-30T11:49:52.144Z,6.73
2019-03-30T11:52:22.377Z,6.37
2019-03-30T11:54:52.673Z,5.80
2019-03-30T11:57:22.927Z,8.33
2019-03-30T11:59:53.213Z,8.37
2019-03-30T12:02:28.226Z,7.93
2019-03-30T12:04:55.438Z,6.53
2019-03-30T12:07:25.662Z,7.43
2019-03-30T12:09:55.891Z,6.67
2019-03-30T12:12:26.121Z,6.83
2019-03-30T12:14:56.364Z,5.10
2019-03-30T12:17:26.576Z,5.53
2019-03-30T12:19:56.825Z,6.70
2019-03-30T12:22:27.049Z,6.53
2019-03-30T12:24:57.281Z,6.40
2019-03-30T12:27:27.520Z,6.50
2019-03-30T12:29:57.782Z,5.97
2019-03-30T12:32:28.126Z,6.73
2019-03-30T12:34:58.440Z,5.57
2019-03-30T12:37:28.807Z,7.30
2019-03-30T12:39:59.117Z,6.00
2019-03-30T12:42:29.468Z,7.30
2019-03-30T12:44:59.742Z,7.47
2019-03-30T12:47:30.094Z,5.70
2019-03-30T12:50:00.406Z,6.47
2019-03-30T12:52:30.831Z,7.30
2019-03-30T12:55:01.160Z,5.77
2019-03-30T12:57:34.844Z,6.43
2019-03-30T13:00:05.417Z,5.70
2019-03-30T13:02:35.774Z,6.07
2019-03-30T13:05:07.611Z,7.03
2019-03-30T13:07:38.042Z,6.37
2019-03-30T13:10:08.550Z,7.37
2019-03-30T13:12:38.826Z,6.30
2019-03-30T13:15:09.208Z,6.50
2019-03-30T13:17:39.459Z,6.47
2019-03-30T13:20:09.930Z,6.87
2019-03-30T13:22:40.162Z,6.57
2019-03-30T13:25:10.537Z,5.80
2019-03-30T13:27:41.845Z,6.93
2019-03-30T13:30:12.496Z,6.73
2019-03-30T13:32:42.832Z,7.53
2019-03-30T13:35:14.148Z,6.73
2019-03-30T13:37:44.442Z,7.20
2019-03-30T13:40:14.802Z,7.73
2019-03-30T13:42:45.080Z,6.40
2019-03-30T13:45:15.574Z,7.00
2019-03-30T13:47:46.031Z,5.37
2019-03-30T13:50:18.021Z,6.23
2019-03-30T13:52:48.334Z,5.47
2019-03-30T13:55:18.796Z,6.10
2019-03-30T13:57:49.032Z,5.47
2019-03-30T14:00:19.762Z,6.00
2019-03-30T14:02:50.068Z,5.40
2019-03-30T14:05:20.309Z,4.80
2019-03-30T14:07:50.604Z,4.80
2019-03-30T14:10:20.975Z,4.67
2019-03-30T14:12:51.242Z,4.97
2019-03-30T14:15:21.533Z,4.17
2019-03-30T14:17:51.858Z,4.77
2019-03-30T14:20:22.093Z,4.27
2019-03-30T14:22:52.325Z,4.00
2019-03-30T14:25:22.637Z,3.67
2019-03-30T14:27:52.919Z,3.70
2019-03-30T14:30:23.242Z,4.00
2019-03-30T14:32:53.505Z,3.43
2019-03-30T14:35:23.788Z,3.80
2019-03-30T14:37:54.030Z,3.50
2019-03-30T14:40:24.248Z,3.57
2019-03-30T14:42:54.472Z,3.83
2019-03-30T14:45:24.690Z,4.10
2019-03-30T14:47:57.783Z,4.13
2019-03-30T14:50:27.034Z,4.67
2019-03-30T14:52:57.292Z,4.07
2019-03-30T14:55:28.090Z,4.30
2019-03-30T14:57:58.483Z,5.00
2019-03-30T15:00:28.827Z,4.23
2019-03-30T15:02:59.164Z,4.40
2019-03-30T15:05:29.490Z,5.17
2019-03-30T15:07:59.857Z,4.37
2019-03-30T15:10:30.153Z,5.43
2019-03-30T15:13:00.373Z,4.43
2019-03-30T15:15:30.702Z,5.20
2019-03-30T15:18:01.017Z,7.63
2019-03-30T15:20:33.668Z,8.70
2019-03-30T15:23:04.529Z,7.73
2019-03-30T15:25:34.766Z,6.93
2019-03-30T15:28:05.044Z,9.13
2019-03-30T15:30:35.401Z,10.53
2019-03-30T15:33:05.723Z,10.73
2019-03-30T15:35:36.061Z,14.43
2019-03-30T15:38:06.414Z,10.37
2019-03-30T15:40:37.061Z,11.73
2019-03-30T15:43:07.321Z,17.83
2019-03-30T15:45:37.552Z,14.30
2019-03-30T15:48:07.801Z,13.77
2019-03-30T15:50:38.078Z,12.07
2019-03-30T15:53:08.377Z,11.80
2019-03-30T15:55:38.631Z,12.90
2019-03-30T15:58:08.857Z,11.07
2019-03-30T16:00:39.260Z,12.23
2019-03-30T16:03:09.581Z,14.13
2019-03-30T16:05:39.794Z,14.73
2019-03-30T16:08:10.114Z,11.53
2019-03-30T16:10:40.393Z,14.73
2019-03-30T16:13:14.220Z,14.87
2019-03-30T16:15:44.562Z,12.30
2019-03-30T16:18:14.824Z,13.73
2019-03-30T16:20:45.081Z,15.53
2019-03-30T16:23:15.400Z,17.13
2019-03-30T16:25:49.853Z,13.93
2019-03-30T16:28:20.188Z,18.87
2019-03-30T16:30:50.716Z,16.47
2019-03-30T16:33:21.099Z,19.47
2019-03-30T16:35:53.005Z,14.03
2019-03-30T16:38:23.353Z,18.77
2019-03-30T16:40:53.654Z,13.73
2019-03-30T16:43:24.063Z,14.63
2019-03-30T16:45:54.403Z,19.03
2019-03-30T16:48:24.735Z,16.77
2019-03-30T16:50:55.006Z,15.13
2019-03-30T16:53:25.346Z,21.80
2019-03-30T16:55:55.666Z,18.67
2019-03-30T16:58:25.995Z,17.37
2019-03-30T17:00:57.161Z,18.50
2019-03-30T17:03:28.681Z,22.40
2019-03-30T17:05:59.035Z,16.87
2019-03-30T17:08:29.434Z,17.30
2019-03-30T17:10:59.683Z,19.83
2019-03-30T17:13:30.006Z,18.50
2019-03-30T17:16:00.346Z,19.07
2019-03-30T17:18:30.585Z,16.67
2019-03-30T17:21:00.901Z,17.63
2019-03-30T17:23:31.350Z,18.20
2019-03-30T17:26:01.607Z,17.23
2019-03-30T17:28:31.864Z,17.97
2019-03-30T17:31:02.175Z,18.93
2019-03-30T17:33:34.047Z,18.20
2019-03-30T17:36:04.547Z,17.83
2019-03-30T17:38:34.895Z,17.73
2019-03-30T17:41:05.120Z,18.20
2019-03-30T17:43:35.350Z,19.67
2019-03-30T17:46:05.851Z,19.23
2019-03-30T17:48:36.308Z,18.33
2019-03-30T17:51:06.549Z,19.83
2019-03-30T17:53:39.471Z,19.50
2019-03-30T17:56:08.901Z,19.43
2019-03-30T17:58:39.144Z,20.60
2019-03-30T18:01:09.538Z,21.67
2019-03-30T18:03:39.828Z,20.20
2019-03-30T18:06:10.122Z,20.97
2019-03-30T18:08:40.569Z,21.10
2019-03-30T18:11:10.936Z,19.83
2019-03-30T18:13:41.150Z,20.13
2019-03-30T18:16:11.431Z,22.33
2019-03-30T18:18:41.822Z,19.47
2019-03-30T18:21:12.157Z,23.27
2019-03-30T18:23:42.447Z,22.17
2019-03-30T18:26:12.802Z,21.73
2019-03-30T18:28:43.093Z,20.83
2019-03-30T18:31:13.395Z,23.60
2019-03-30T18:33:44.316Z,20.80
2019-03-30T18:36:15.713Z,22.07
2019-03-30T18:38:47.065Z,21.17
2019-03-30T18:41:17.442Z,22.00
2019-03-30T18:43:47.780Z,20.20
2019-03-30T18:46:18.047Z,21.23
2019-03-30T18:48:48.287Z,20.53
2019-03-30T18:51:18.593Z,21.00
2019-03-30T18:53:49.104Z,22.43
2019-03-30T18:56:19.370Z,21.70
2019-03-30T18:58:49.645Z,21.33
2019-03-30T19:01:20.866Z,20.33
2019-03-30T19:03:51.154Z,21.20
2019-03-30T19:06:21.417Z,21.37
2019-03-30T19:08:51.743Z,21.77
2019-03-30T19:11:21.983Z,19.60
2019-03-30T19:13:52.563Z,19.87
2019-03-30T19:16:23.051Z,19.93
2019-03-30T19:18:53.848Z,20.73
2019-03-30T19:21:24.151Z,19.37
2019-03-30T19:23:54.545Z,21.53
2019-03-30T19:26:24.898Z,19.77
2019-03-30T19:28:56.691Z,20.70
2019-03-30T19:31:27.198Z,19.87
2019-03-30T19:33:57.618Z,20.10
2019-03-30T19:36:27.993Z,20.97
2019-03-30T19:38:58.578Z,20.43
2019-03-30T19:41:28.806Z,20.47
2019-03-30T19:43:59.133Z,20.70
2019-03-30T19:46:29.535Z,21.40
2019-03-30T19:48:59.953Z,19.77
2019-03-30T19:51:30.234Z,18.93
2019-03-30T19:54:00.529Z,21.37
2019-03-30T19:56:30.803Z,20.07
2019-03-30T19:59:10.652Z,21.33
2019-03-30T20:01:33.239Z,20.90
2019-03-30T20:04:07.578Z,20.90
2019-03-30T20:06:36.343Z,19.47
2019-03-30T20:09:07.916Z,20.67
2019-03-30T20:11:39.889Z,20.67
2019-03-30T20:14:10.149Z,21.20
2019-03-30T20:16:42.334Z,21.03
2019-03-30T20:19:13.269Z,21.20
2019-03-30T20:21:43.798Z,20.83
2019-03-30T20:24:14.098Z,20.37
2019-03-30T20:26:44.347Z,20.30
2019-03-30T20:29:25.088Z,20.93
2019-03-30T20:31:46.750Z,20.70
2019-03-30T20:34:17.011Z,21.20
2019-03-30T20:36:47.391Z,21.90
2019-03-30T20:39:17.714Z,21.97
2019-03-30T20:41:48.149Z,20.20
2019-03-30T20:44:18.521Z,21.67
2019-03-30T20:46:48.846Z,21.13
2019-03-30T20:49:19.116Z,20.73
2019-03-30T20:51:49.394Z,19.63
2019-03-30T20:54:19.683Z,20.57
2019-03-30T20:56:49.940Z,21.57
2019-03-30T20:59:20.232Z,20.83
2019-03-30T21:01:50.683Z,21.33
2019-03-30T21:04:21.128Z,21.37
2019-03-30T21:06:51.674Z,21.73
2019-03-30T21:09:21.967Z,21.10
2019-03-30T21:11:52.258Z,22.77
2019-03-30T21:20:09.444Z,19.70
2019-03-30T21:22:40.513Z,20.17
2019-03-30T21:25:11.972Z,20.90
2019-03-30T21:27:42.297Z,21.97
2019-03-30T21:30:12.702Z,20.57
2019-03-30T21:32:43.140Z,21.40
2019-03-30T21:35:13.799Z,20.77
2019-03-30T21:37:44.055Z,20.90
2019-03-30T21:40:14.402Z,20.67
2019-03-30T21:42:44.683Z,21.47
2019-03-30T21:45:14.955Z,21.67
2019-03-30T21:47:45.250Z,22.87
2019-03-30T21:50:15.574Z,21.70
2019-03-30T21:52:45.877Z,22.60
2019-03-30T21:55:16.131Z,23.90
2019-03-30T21:57:46.418Z,22.67
2019-03-30T22:00:20.761Z,23.57
2019-03-30T22:02:51.136Z,22.93
2019-03-30T22:05:21.453Z,21.97
2019-03-30T22:07:51.837Z,21.70
2019-03-30T22:10:27.391Z,22.43
2019-03-30T22:12:57.719Z,20.50
2019-03-30T22:15:28.280Z,21.33
2019-03-30T22:17:58.622Z,20.03
2019-03-30T22:20:28.907Z,19.53
2019-03-30T22:22:59.346Z,20.97
2019-03-30T22:25:29.636Z,20.93
2019-03-30T22:27:59.885Z,20.93
2019-03-30T22:30:30.388Z,19.50
2019-03-30T22:33:00.704Z,19.50
2019-03-30T22:35:31.086Z,20.17
2019-03-30T22:38:01.346Z,20.40
2019-03-30T22:40:31.610Z,20.37
2019-03-30T22:43:01.873Z,22.20
2019-03-30T22:45:32.118Z,20.23
2019-03-30T22:48:02.473Z,20.33
2019-03-30T22:50:32.748Z,21.00
2019-03-30T22:53:03.109Z,20.50
2019-03-30T22:55:33.368Z,20.70
2019-03-30T22:58:04.467Z,20.03
2019-03-30T23:00:53.654Z,19.83
2019-03-30T23:03:25.705Z,20.33
2019-03-30T23:05:56.051Z,19.93
2019-03-30T23:08:26.373Z,19.27
2019-03-30T23:10:56.697Z,20.53
2019-03-30T23:13:26.966Z,20.83
2019-03-30T23:15:57.250Z,20.33
2019-03-30T23:18:27.674Z,20.37
2019-03-30T23:20:57.961Z,19.90
2019-03-30T23:23:28.277Z,19.70
2019-03-30T23:25:59.606Z,18.93
2019-03-30T23:28:30.935Z,19.10
2019-03-30T23:31:01.236Z,19.20
2019-03-30T23:33:31.684Z,20.10
2019-03-30T23:36:02.013Z,20.63
2019-03-30T23:38:32.268Z,20.23
2019-03-30T23:41:02.582Z,20.70
2019-03-30T23:43:32.927Z,20.07
2019-03-30T23:46:03.257Z,20.30
2019-03-30T23:48:33.520Z,20.33
2019-03-30T23:51:04.596Z,20.40
2019-03-30T23:53:34.922Z,20.57
2019-03-30T23:56:15.853Z,20.30
2019-03-30T23:58:46.139Z,20.40
